sensor_id;sensor_type;location;lat;lon;timestamp;P1;durP1;ratioP1;P2;durP2;ratioP2
9974;SDS011;5028;50.974;4.968;2024-01-06T00:02:19;12.23;;;5.23;;
9974;SDS011;5028;50.974;4.968;2024-01-06T00:04:48;10.50;;;5.20;;
9974;SDS011;5028;50.974;4.968;2024-01-06T00:07:16;11.73;;;5.00;;
9974;SDS011;5028;50.974;4.968;2024-01-06T00:09:45;9.83;;;5.10;;
9974;SDS011;5028;50.974;4.968;2024-01-06T00:12:16;10.77;;;5.50;;
9974;SDS011;5028;50.974;4.968;2024-01-06T00:14:45;11.03;;;5.00;;
9974;SDS011;5028;50.974;4.968;2024-01-06T00:17:14;12.80;;;4.97;;
9974;SDS011;5028;50.974;4.968;2024-01-06T00:19:43;14.97;;;4.60;;
9974;SDS011;5028;50.974;4.968;2024-01-06T00:22:18;10.23;;;4.13;;
9974;SDS011;5028;50.974;4.968;2024-01-06T00:24:47;8.87;;;4.23;;
9974;SDS011;5028;50.974;4.968;2024-01-06T00:27:17;10.50;;;4.07;;
9974;SDS011;5028;50.974;4.968;2024-01-06T00:29:46;9.97;;;4.70;;
9974;SDS011;5028;50.974;4.968;2024-01-06T00:32:14;10.57;;;4.10;;
9974;SDS011;5028;50.974;4.968;2024-01-06T00:34:42;9.67;;;4.00;;
9974;SDS011;5028;50.974;4.968;2024-01-06T00:37:11;6.83;;;4.00;;
9974;SDS011;5028;50.974;4.968;2024-01-06T00:39:39;7.77;;;3.87;;
9974;SDS011;5028;50.974;4.968;2024-01-06T00:42:08;6.07;;;3.73;;
9974;SDS011;5028;50.974;4.968;2024-01-06T00:44:38;8.23;;;3.43;;
9974;SDS011;5028;50.974;4.968;2024-01-06T00:47:06;7.67;;;3.77;;
9974;SDS011;5028;50.974;4.968;2024-01-06T00:49:34;7.67;;;3.70;;
9974;SDS011;5028;50.974;4.968;2024-01-06T00:52:03;10.43;;;3.67;;
9974;SDS011;5028;50.974;4.968;2024-01-06T00:54:32;9.63;;;4.03;;
9974;SDS011;5028;50.974;4.968;2024-01-06T00:57:00;8.10;;;3.60;;
9974;SDS011;5028;50.974;4.968;2024-01-06T00:59:28;8.40;;;3.60;;
9974;SDS011;5028;50.974;4.968;2024-01-06T01:01:58;9.13;;;3.97;;
9974;SDS011;5028;50.974;4.968;2024-01-06T01:04:27;8.63;;;3.60;;
9974;SDS011;5028;50.974;4.968;2024-01-06T01:06:55;11.20;;;4.27;;
9974;SDS011;5028;50.974;4.968;2024-01-06T01:09:24;9.27;;;4.27;;
9974;SDS011;5028;50.974;4.968;2024-01-06T01:11:53;7.60;;;4.30;;
9974;SDS011;5028;50.974;4.968;2024-01-06T01:14:22;8.67;;;4.17;;
9974;SDS011;5028;50.974;4.968;2024-01-06T01:16:50;7.33;;;4.03;;
9974;SDS011;5028;50.974;4.968;2024-01-06T01:19:20;8.77;;;4.50;;
9974;SDS011;5028;50.974;4.968;2024-01-06T01:21:49;10.13;;;4.80;;
9974;SDS011;5028;50.974;4.968;2024-01-06T01:24:22;7.90;;;4.90;;
9974;SDS011;5028;50.974;4.968;2024-01-06T01:26:50;9.03;;;4.90;;
9974;SDS011;5028;50.974;4.968;2024-01-06T01:29:19;7.63;;;4.90;;
9974;SDS011;5028;50.974;4.968;2024-01-06T01:31:47;10.43;;;5.10;;
9974;SDS011;5028;50.974;4.968;2024-01-06T01:34:17;9.87;;;5.63;;
9974;SDS011;5028;50.974;4.968;2024-01-06T01:36:47;8.10;;;5.20;;
9974;SDS011;5028;50.974;4.968;2024-01-06T01:39:17;7.93;;;5.40;;
9974;SDS011;5028;50.974;4.968;2024-01-06T01:41:45;7.27;;;5.53;;
9974;SDS011;5028;50.974;4.968;2024-01-06T01:44:14;8.07;;;5.10;;
9974;SDS011;5028;50.974;4.968;2024-01-06T01:46:43;7.60;;;5.63;;
9974;SDS011;5028;50.974;4.968;2024-01-06T01:49:12;7.97;;;6.03;;
9974;SDS011;5028;50.974;4.968;2024-01-06T01:51:40;9.23;;;5.60;;
9974;SDS011;5028;50.974;4.968;2024-01-06T01:54:12;8.07;;;6.17;;
9974;SDS011;5028;50.974;4.968;2024-01-06T01:56:41;7.20;;;5.43;;
9974;SDS011;5028;50.974;4.968;2024-01-06T01:59:11;8.63;;;5.70;;
9974;SDS011;5028;50.974;4.968;2024-01-06T02:01:40;8.10;;;5.00;;
9974;SDS011;5028;50.974;4.968;2024-01-06T02:04:08;6.17;;;4.80;;
9974;SDS011;5028;50.974;4.968;2024-01-06T02:06:37;8.43;;;4.70;;
9974;SDS011;5028;50.974;4.968;2024-01-06T02:09:06;6.07;;;5.10;;
9974;SDS011;5028;50.974;4.968;2024-01-06T02:11:36;6.33;;;4.27;;
9974;SDS011;5028;50.974;4.968;2024-01-06T02:14:04;4.93;;;4.10;;
9974;SDS011;5028;50.974;4.968;2024-01-06T02:16:33;6.43;;;3.73;;
9974;SDS011;5028;50.974;4.968;2024-01-06T02:19:01;3.70;;;3.30;;
9974;SDS011;5028;50.974;4.968;2024-01-06T02:21:31;3.77;;;2.60;;
9974;SDS011;5028;50.974;4.968;2024-01-06T02:24:05;2.57;;;2.00;;
9974;SDS011;5028;50.974;4.968;2024-01-06T02:26:33;2.30;;;1.90;;
9974;SDS011;5028;50.974;4.968;2024-01-06T02:29:02;1.57;;;1.47;;
9974;SDS011;5028;50.974;4.968;2024-01-06T02:31:31;1.50;;;1.40;;
9974;SDS011;5028;50.974;4.968;2024-01-06T02:33:59;1.83;;;1.73;;
9974;SDS011;5028;50.974;4.968;2024-01-06T02:36:28;1.67;;;1.40;;
9974;SDS011;5028;50.974;4.968;2024-01-06T02:38:56;1.93;;;1.50;;
9974;SDS011;5028;50.974;4.968;2024-01-06T02:41:26;2.70;;;1.57;;
9974;SDS011;5028;50.974;4.968;2024-01-06T02:43:54;2.53;;;2.20;;
9974;SDS011;5028;50.974;4.968;2024-01-06T02:46:23;7.90;;;5.37;;
9974;SDS011;5028;50.974;4.968;2024-01-06T02:48:52;7.77;;;6.60;;
9974;SDS011;5028;50.974;4.968;2024-01-06T02:51:20;9.03;;;6.80;;
9974;SDS011;5028;50.974;4.968;2024-01-06T02:53:48;8.43;;;7.03;;
9974;SDS011;5028;50.974;4.968;2024-01-06T02:56:17;11.63;;;7.30;;
9974;SDS011;5028;50.974;4.968;2024-01-06T02:58:47;8.90;;;7.40;;
9974;SDS011;5028;50.974;4.968;2024-01-06T03:01:16;8.47;;;7.43;;
9974;SDS011;5028;50.974;4.968;2024-01-06T03:03:45;10.00;;;6.50;;
9974;SDS011;5028;50.974;4.968;2024-01-06T03:06:14;14.87;;;8.57;;
9974;SDS011;5028;50.974;4.968;2024-01-06T03:08:43;12.07;;;8.57;;
9974;SDS011;5028;50.974;4.968;2024-01-06T03:11:11;9.57;;;6.90;;
9974;SDS011;5028;50.974;4.968;2024-01-06T03:13:41;9.07;;;7.30;;
9974;SDS011;5028;50.974;4.968;2024-01-06T03:16:12;7.83;;;7.03;;
9974;SDS011;5028;50.974;4.968;2024-01-06T03:18:40;10.10;;;7.70;;
9974;SDS011;5028;50.974;4.968;2024-01-06T03:21:16;8.97;;;7.27;;
9974;SDS011;5028;50.974;4.968;2024-01-06T03:23:45;8.17;;;7.20;;
9974;SDS011;5028;50.974;4.968;2024-01-06T03:26:13;9.53;;;7.10;;
9974;SDS011;5028;50.974;4.968;2024-01-06T03:28:42;8.80;;;7.33;;
9974;SDS011;5028;50.974;4.968;2024-01-06T03:31:12;8.40;;;7.50;;
9974;SDS011;5028;50.974;4.968;2024-01-06T03:33:42;10.73;;;7.80;;
9974;SDS011;5028;50.974;4.968;2024-01-06T03:36:12;9.40;;;7.47;;
9974;SDS011;5028;50.974;4.968;2024-01-06T03:38:42;8.90;;;7.93;;
9974;SDS011;5028;50.974;4.968;2024-01-06T03:41:11;8.13;;;6.07;;
9974;SDS011;5028;50.974;4.968;2024-01-06T03:43:39;8.73;;;7.40;;
9974;SDS011;5028;50.974;4.968;2024-01-06T03:46:07;7.60;;;6.63;;
9974;SDS011;5028;50.974;4.968;2024-01-06T03:48:39;8.23;;;7.43;;
9974;SDS011;5028;50.974;4.968;2024-01-06T03:51:09;8.20;;;6.87;;
9974;SDS011;5028;50.974;4.968;2024-01-06T03:53:38;9.73;;;7.77;;
9974;SDS011;5028;50.974;4.968;2024-01-06T03:56:07;8.80;;;7.60;;
9974;SDS011;5028;50.974;4.968;2024-01-06T03:58:36;8.97;;;7.30;;
9974;SDS011;5028;50.974;4.968;2024-01-06T04:01:04;8.50;;;6.73;;
9974;SDS011;5028;50.974;4.968;2024-01-06T04:03:33;9.77;;;7.63;;
9974;SDS011;5028;50.974;4.968;2024-01-06T04:06:04;8.90;;;8.00;;
9974;SDS011;5028;50.974;4.968;2024-01-06T04:08:35;10.13;;;7.67;;
9974;SDS011;5028;50.974;4.968;2024-01-06T04:11:03;10.23;;;8.43;;
9974;SDS011;5028;50.974;4.968;2024-01-06T04:13:32;9.07;;;8.17;;
9974;SDS011;5028;50.974;4.968;2024-01-06T04:16:00;9.80;;;8.53;;
9974;SDS011;5028;50.974;4.968;2024-01-06T04:18:29;9.57;;;8.57;;
9974;SDS011;5028;50.974;4.968;2024-01-06T04:20:58;11.53;;;8.80;;
9974;SDS011;5028;50.974;4.968;2024-01-06T04:23:27;11.10;;;8.57;;
9974;SDS011;5028;50.974;4.968;2024-01-06T04:25:57;11.47;;;9.30;;
9974;SDS011;5028;50.974;4.968;2024-01-06T04:28:25;10.20;;;8.40;;
9974;SDS011;5028;50.974;4.968;2024-01-06T04:30:54;10.73;;;8.87;;
9974;SDS011;5028;50.974;4.968;2024-01-06T04:33:22;11.80;;;9.23;;
9974;SDS011;5028;50.974;4.968;2024-01-06T04:35:51;13.00;;;9.40;;
9974;SDS011;5028;50.974;4.968;2024-01-06T04:38:20;10.53;;;9.43;;
9974;SDS011;5028;50.974;4.968;2024-01-06T04:40:50;11.53;;;9.47;;
9974;SDS011;5028;50.974;4.968;2024-01-06T04:43:19;12.53;;;10.10;;
9974;SDS011;5028;50.974;4.968;2024-01-06T04:45:48;9.90;;;8.30;;
9974;SDS011;5028;50.974;4.968;2024-01-06T04:48:17;10.03;;;9.03;;
9974;SDS011;5028;50.974;4.968;2024-01-06T04:50:45;9.90;;;8.87;;
9974;SDS011;5028;50.974;4.968;2024-01-06T04:53:13;8.67;;;7.70;;
9974;SDS011;5028;50.974;4.968;2024-01-06T04:55:42;8.77;;;7.87;;
9974;SDS011;5028;50.974;4.968;2024-01-06T04:58:12;9.13;;;8.10;;
9974;SDS011;5028;50.974;4.968;2024-01-06T05:00:40;8.50;;;7.70;;
9974;SDS011;5028;50.974;4.968;2024-01-06T05:03:09;9.87;;;7.83;;
9974;SDS011;5028;50.974;4.968;2024-01-06T05:05:38;10.30;;;8.30;;
9974;SDS011;5028;50.974;4.968;2024-01-06T05:08:07;9.23;;;8.33;;
9974;SDS011;5028;50.974;4.968;2024-01-06T05:10:35;9.00;;;8.10;;
9974;SDS011;5028;50.974;4.968;2024-01-06T05:13:03;9.33;;;8.43;;
9974;SDS011;5028;50.974;4.968;2024-01-06T05:15:33;9.03;;;8.23;;
9974;SDS011;5028;50.974;4.968;2024-01-06T05:18:02;7.90;;;7.10;;
9974;SDS011;5028;50.974;4.968;2024-01-06T05:20:31;8.37;;;7.67;;
9974;SDS011;5028;50.974;4.968;2024-01-06T05:22:59;8.07;;;7.27;;
9974;SDS011;5028;50.974;4.968;2024-01-06T05:25:28;8.70;;;7.80;;
9974;SDS011;5028;50.974;4.968;2024-01-06T05:27:56;10.43;;;8.57;;
9974;SDS011;5028;50.974;4.968;2024-01-06T05:30:25;8.43;;;7.63;;
9974;SDS011;5028;50.974;4.968;2024-01-06T05:32:55;9.20;;;8.30;;
9974;SDS011;5028;50.974;4.968;2024-01-06T05:35:24;8.30;;;7.53;;
9974;SDS011;5028;50.974;4.968;2024-01-06T05:37:52;8.60;;;7.80;;
9974;SDS011;5028;50.974;4.968;2024-01-06T05:40:21;8.77;;;7.80;;
9974;SDS011;5028;50.974;4.968;2024-01-06T05:42:49;7.07;;;6.37;;
9974;SDS011;5028;50.974;4.968;2024-01-06T05:45:22;7.87;;;7.07;;
9974;SDS011;5028;50.974;4.968;2024-01-06T05:47:56;7.27;;;6.57;;
9974;SDS011;5028;50.974;4.968;2024-01-06T05:50:25;7.70;;;6.90;;
9974;SDS011;5028;50.974;4.968;2024-01-06T05:52:54;8.43;;;6.57;;
9974;SDS011;5028;50.974;4.968;2024-01-06T05:55:22;8.63;;;7.77;;
9974;SDS011;5028;50.974;4.968;2024-01-06T05:57:51;13.27;;;6.70;;
9974;SDS011;5028;50.974;4.968;2024-01-06T06:00:20;7.67;;;6.87;;
9974;SDS011;5028;50.974;4.968;2024-01-06T06:02:49;7.70;;;7.00;;
9974;SDS011;5028;50.974;4.968;2024-01-06T06:05:19;6.43;;;5.57;;
9974;SDS011;5028;50.974;4.968;2024-01-06T06:07:47;7.47;;;6.77;;
9974;SDS011;5028;50.974;4.968;2024-01-06T06:10:16;8.50;;;7.40;;
9974;SDS011;5028;50.974;4.968;2024-01-06T06:12:45;7.80;;;7.00;;
9974;SDS011;5028;50.974;4.968;2024-01-06T06:15:14;7.50;;;6.70;;
9974;SDS011;5028;50.974;4.968;2024-01-06T06:17:42;8.10;;;7.30;;
9974;SDS011;5028;50.974;4.968;2024-01-06T06:20:11;10.17;;;7.23;;
9974;SDS011;5028;50.974;4.968;2024-01-06T06:22:42;8.20;;;7.50;;
9974;SDS011;5028;50.974;4.968;2024-01-06T06:25:10;8.20;;;7.33;;
9974;SDS011;5028;50.974;4.968;2024-01-06T06:27:39;8.33;;;7.17;;
9974;SDS011;5028;50.974;4.968;2024-01-06T06:30:08;7.90;;;7.03;;
9974;SDS011;5028;50.974;4.968;2024-01-06T06:32:37;6.93;;;6.33;;
9974;SDS011;5028;50.974;4.968;2024-01-06T06:35:06;7.77;;;7.07;;
9974;SDS011;5028;50.974;4.968;2024-01-06T06:37:35;7.90;;;7.20;;
9974;SDS011;5028;50.974;4.968;2024-01-06T06:40:07;8.07;;;7.27;;
9974;SDS011;5028;50.974;4.968;2024-01-06T06:42:36;9.20;;;7.40;;
9974;SDS011;5028;50.974;4.968;2024-01-06T06:45:05;9.87;;;8.13;;
9974;SDS011;5028;50.974;4.968;2024-01-06T06:47:34;8.23;;;7.20;;
9974;SDS011;5028;50.974;4.968;2024-01-06T06:50:02;8.60;;;7.80;;
9974;SDS011;5028;50.974;4.968;2024-01-06T06:52:31;8.10;;;7.30;;
9974;SDS011;5028;50.974;4.968;2024-01-06T06:54:59;9.43;;;7.70;;
9974;SDS011;5028;50.974;4.968;2024-01-06T06:57:29;7.43;;;6.80;;
9974;SDS011;5028;50.974;4.968;2024-01-06T06:59:57;8.40;;;7.20;;
9974;SDS011;5028;50.974;4.968;2024-01-06T07:02:26;8.67;;;7.33;;
9974;SDS011;5028;50.974;4.968;2024-01-06T07:04:55;8.03;;;7.33;;
9974;SDS011;5028;50.974;4.968;2024-01-06T07:07:24;8.77;;;7.80;;
9974;SDS011;5028;50.974;4.968;2024-01-06T07:09:52;7.03;;;6.33;;
9974;SDS011;5028;50.974;4.968;2024-01-06T07:12:21;10.63;;;7.37;;
9974;SDS011;5028;50.974;4.968;2024-01-06T07:14:50;9.23;;;7.67;;
9974;SDS011;5028;50.974;4.968;2024-01-06T07:17:19;8.27;;;7.47;;
9974;SDS011;5028;50.974;4.968;2024-01-06T07:19:48;8.60;;;7.70;;
9974;SDS011;5028;50.974;4.968;2024-01-06T07:22:16;9.17;;;8.20;;
9974;SDS011;5028;50.974;4.968;2024-01-06T07:24:45;8.50;;;7.70;;
9974;SDS011;5028;50.974;4.968;2024-01-06T07:27:14;8.90;;;8.10;;
9974;SDS011;5028;50.974;4.968;2024-01-06T07:29:42;8.23;;;7.40;;
9974;SDS011;5028;50.974;4.968;2024-01-06T07:32:12;8.30;;;7.57;;
9974;SDS011;5028;50.974;4.968;2024-01-06T07:34:42;10.20;;;9.30;;
9974;SDS011;5028;50.974;4.968;2024-01-06T07:37:11;8.83;;;7.93;;
9974;SDS011;5028;50.974;4.968;2024-01-06T07:39:39;8.50;;;7.67;;
9974;SDS011;5028;50.974;4.968;2024-01-06T07:42:07;9.33;;;8.43;;
9974;SDS011;5028;50.974;4.968;2024-01-06T07:44:35;8.47;;;7.67;;
9974;SDS011;5028;50.974;4.968;2024-01-06T07:47:04;8.37;;;7.53;;
9974;SDS011;5028;50.974;4.968;2024-01-06T07:49:34;8.63;;;7.83;;
9974;SDS011;5028;50.974;4.968;2024-01-06T07:52:03;8.77;;;7.97;;
9974;SDS011;5028;50.974;4.968;2024-01-06T07:54:32;9.63;;;7.90;;
9974;SDS011;5028;50.974;4.968;2024-01-06T07:57:00;9.43;;;8.47;;
9974;SDS011;5028;50.974;4.968;2024-01-06T07:59:29;9.13;;;8.20;;
9974;SDS011;5028;50.974;4.968;2024-01-06T08:01:57;8.87;;;8.07;;
9974;SDS011;5028;50.974;4.968;2024-01-06T08:04:25;8.23;;;7.43;;
9974;SDS011;5028;50.974;4.968;2024-01-06T08:06:56;8.17;;;7.33;;
9974;SDS011;5028;50.974;4.968;2024-01-06T08:09:24;8.83;;;7.30;;
9974;SDS011;5028;50.974;4.968;2024-01-06T08:11:53;7.60;;;6.80;;
9974;SDS011;5028;50.974;4.968;2024-01-06T08:14:21;8.63;;;7.73;;
9974;SDS011;5028;50.974;4.968;2024-01-06T08:16:50;7.57;;;6.87;;
9974;SDS011;5028;50.974;4.968;2024-01-06T08:19:18;7.23;;;6.53;;
9974;SDS011;5028;50.974;4.968;2024-01-06T08:21:47;7.80;;;7.10;;
9974;SDS011;5028;50.974;4.968;2024-01-06T08:24:17;7.60;;;6.90;;
9974;SDS011;5028;50.974;4.968;2024-01-06T08:26:46;7.50;;;6.80;;
9974;SDS011;5028;50.974;4.968;2024-01-06T08:29:14;7.40;;;6.70;;
9974;SDS011;5028;50.974;4.968;2024-01-06T08:31:43;8.23;;;7.03;;
9974;SDS011;5028;50.974;4.968;2024-01-06T08:34:12;7.97;;;7.17;;
9974;SDS011;5028;50.974;4.968;2024-01-06T08:36:41;8.43;;;7.63;;
9974;SDS011;5028;50.974;4.968;2024-01-06T08:39:11;8.30;;;7.10;;
9974;SDS011;5028;50.974;4.968;2024-01-06T08:41:41;8.20;;;6.73;;
9974;SDS011;5028;50.974;4.968;2024-01-06T08:44:10;5.73;;;5.17;;
9974;SDS011;5028;50.974;4.968;2024-01-06T08:46:38;10.27;;;6.80;;
9974;SDS011;5028;50.974;4.968;2024-01-06T08:49:06;7.67;;;6.87;;
9974;SDS011;5028;50.974;4.968;2024-01-06T08:51:35;7.67;;;6.77;;
9974;SDS011;5028;50.974;4.968;2024-01-06T08:54:04;4.93;;;4.37;;
9974;SDS011;5028;50.974;4.968;2024-01-06T08:56:33;6.83;;;6.27;;
9974;SDS011;5028;50.974;4.968;2024-01-06T08:59:03;9.60;;;6.03;;
9974;SDS011;5028;50.974;4.968;2024-01-06T09:01:32;8.60;;;7.13;;
9974;SDS011;5028;50.974;4.968;2024-01-06T09:04:02;8.27;;;6.53;;
9974;SDS011;5028;50.974;4.968;2024-01-06T09:06:33;8.20;;;6.80;;
9974;SDS011;5028;50.974;4.968;2024-01-06T09:09:02;6.77;;;6.07;;
9974;SDS011;5028;50.974;4.968;2024-01-06T09:11:30;7.70;;;6.20;;
9974;SDS011;5028;50.974;4.968;2024-01-06T09:13:59;5.90;;;5.10;;
9974;SDS011;5028;50.974;4.968;2024-01-06T09:16:29;6.97;;;5.80;;
9974;SDS011;5028;50.974;4.968;2024-01-06T09:18:57;7.33;;;6.50;;
9974;SDS011;5028;50.974;4.968;2024-01-06T09:21:25;6.63;;;6.03;;
9974;SDS011;5028;50.974;4.968;2024-01-06T09:23:54;7.60;;;6.37;;
9974;SDS011;5028;50.974;4.968;2024-01-06T09:26:22;7.23;;;6.53;;
9974;SDS011;5028;50.974;4.968;2024-01-06T09:28:51;7.57;;;6.77;;
9974;SDS011;5028;50.974;4.968;2024-01-06T09:31:20;10.73;;;7.00;;
9974;SDS011;5028;50.974;4.968;2024-01-06T09:33:51;6.80;;;6.20;;
9974;SDS011;5028;50.974;4.968;2024-01-06T09:36:20;6.53;;;5.77;;
9974;SDS011;5028;50.974;4.968;2024-01-06T09:38:48;6.43;;;5.80;;
9974;SDS011;5028;50.974;4.968;2024-01-06T09:41:17;6.63;;;5.77;;
9974;SDS011;5028;50.974;4.968;2024-01-06T09:43:46;6.33;;;5.67;;
9974;SDS011;5028;50.974;4.968;2024-01-06T09:46:17;5.40;;;4.90;;
9974;SDS011;5028;50.974;4.968;2024-01-06T09:48:55;5.23;;;4.37;;
9974;SDS011;5028;50.974;4.968;2024-01-06T09:51:25;5.00;;;4.60;;
9974;SDS011;5028;50.974;4.968;2024-01-06T09:53:56;5.13;;;4.63;;
9974;SDS011;5028;50.974;4.968;2024-01-06T09:56:26;6.77;;;4.80;;
9974;SDS011;5028;50.974;4.968;2024-01-06T09:58:56;5.57;;;5.00;;
9974;SDS011;5028;50.974;4.968;2024-01-06T10:01:25;5.27;;;4.77;;
9974;SDS011;5028;50.974;4.968;2024-01-06T10:03:55;5.40;;;4.90;;
9974;SDS011;5028;50.974;4.968;2024-01-06T10:06:24;4.47;;;4.07;;
9974;SDS011;5028;50.974;4.968;2024-01-06T10:08:52;4.83;;;4.43;;
9974;SDS011;5028;50.974;4.968;2024-01-06T10:11:22;4.87;;;4.43;;
9974;SDS011;5028;50.974;4.968;2024-01-06T10:13:51;4.70;;;4.30;;
9974;SDS011;5028;50.974;4.968;2024-01-06T10:16:21;5.20;;;4.70;;
9974;SDS011;5028;50.974;4.968;2024-01-06T10:18:49;5.60;;;4.70;;
9974;SDS011;5028;50.974;4.968;2024-01-06T10:21:21;5.00;;;4.50;;
9974;SDS011;5028;50.974;4.968;2024-01-06T10:23:50;6.17;;;4.93;;
9974;SDS011;5028;50.974;4.968;2024-01-06T10:26:21;5.90;;;5.40;;
9974;SDS011;5028;50.974;4.968;2024-01-06T10:28:50;6.30;;;4.97;;
9974;SDS011;5028;50.974;4.968;2024-01-06T10:31:18;4.70;;;3.90;;
9974;SDS011;5028;50.974;4.968;2024-01-06T10:33:47;5.17;;;4.67;;
9974;SDS011;5028;50.974;4.968;2024-01-06T10:36:16;5.60;;;5.10;;
9974;SDS011;5028;50.974;4.968;2024-01-06T10:38:46;5.00;;;4.40;;
9974;SDS011;5028;50.974;4.968;2024-01-06T10:41:15;4.97;;;4.57;;
9974;SDS011;5028;50.974;4.968;2024-01-06T10:43:45;4.77;;;4.37;;
9974;SDS011;5028;50.974;4.968;2024-01-06T10:46:15;6.33;;;5.53;;
9974;SDS011;5028;50.974;4.968;2024-01-06T10:48:46;6.17;;;5.10;;
9974;SDS011;5028;50.974;4.968;2024-01-06T10:51:17;5.53;;;5.03;;
9974;SDS011;5028;50.974;4.968;2024-01-06T10:53:48;4.37;;;3.97;;
9974;SDS011;5028;50.974;4.968;2024-01-06T10:56:18;6.37;;;5.77;;
9974;SDS011;5028;50.974;4.968;2024-01-06T10:58:48;4.27;;;3.67;;
9974;SDS011;5028;50.974;4.968;2024-01-06T11:01:19;6.07;;;5.50;;
9974;SDS011;5028;50.974;4.968;2024-01-06T11:03:55;6.40;;;4.37;;
9974;SDS011;5028;50.974;4.968;2024-01-06T11:06:25;6.27;;;5.77;;
9974;SDS011;5028;50.974;4.968;2024-01-06T11:08:59;7.00;;;6.30;;
9974;SDS011;5028;50.974;4.968;2024-01-06T11:11:32;6.40;;;5.80;;
9974;SDS011;5028;50.974;4.968;2024-01-06T11:14:18;6.27;;;5.67;;
9974;SDS011;5028;50.974;4.968;2024-01-06T11:16:48;6.00;;;5.40;;
9974;SDS011;5028;50.974;4.968;2024-01-06T11:22:18;5.73;;;5.27;;
9974;SDS011;5028;50.974;4.968;2024-01-06T11:24:50;5.43;;;4.93;;
9974;SDS011;5028;50.974;4.968;2024-01-06T11:27:20;5.70;;;5.20;;
9974;SDS011;5028;50.974;4.968;2024-01-06T11:29:53;4.93;;;4.50;;
9974;SDS011;5028;50.974;4.968;2024-01-06T11:32:26;5.10;;;4.43;;
9974;SDS011;5028;50.974;4.968;2024-01-06T11:35:04;4.90;;;4.50;;
9974;SDS011;5028;50.974;4.968;2024-01-06T11:37:35;3.70;;;3.40;;
9974;SDS011;5028;50.974;4.968;2024-01-06T11:40:23;4.40;;;4.10;;
9974;SDS011;5028;50.974;4.968;2024-01-06T11:42:57;5.80;;;4.47;;
9974;SDS011;5028;50.974;4.968;2024-01-06T11:45:27;5.00;;;4.30;;
9974;SDS011;5028;50.974;4.968;2024-01-06T11:47:57;4.93;;;4.43;;
9974;SDS011;5028;50.974;4.968;2024-01-06T11:50:27;3.93;;;3.40;;
9974;SDS011;5028;50.974;4.968;2024-01-06T11:52:55;5.20;;;4.57;;
9974;SDS011;5028;50.974;4.968;2024-01-06T11:55:26;4.03;;;3.70;;
9974;SDS011;5028;50.974;4.968;2024-01-06T11:57:55;4.70;;;4.30;;
9974;SDS011;5028;50.974;4.968;2024-01-06T12:00:24;4.17;;;3.77;;
9974;SDS011;5028;50.974;4.968;2024-01-06T12:02:55;5.00;;;4.50;;
9974;SDS011;5028;50.974;4.968;2024-01-06T12:05:25;5.07;;;4.57;;
9974;SDS011;5028;50.974;4.968;2024-01-06T12:07:54;4.13;;;3.73;;
9974;SDS011;5028;50.974;4.968;2024-01-06T12:10:24;4.63;;;4.23;;
9974;SDS011;5028;50.974;4.968;2024-01-06T12:12:56;5.03;;;4.50;;
9974;SDS011;5028;50.974;4.968;2024-01-06T12:15:28;4.37;;;3.97;;
9974;SDS011;5028;50.974;4.968;2024-01-06T12:17:58;3.00;;;2.80;;
9974;SDS011;5028;50.974;4.968;2024-01-06T12:20:27;4.43;;;4.03;;
9974;SDS011;5028;50.974;4.968;2024-01-06T12:22:56;5.37;;;3.67;;
9974;SDS011;5028;50.974;4.968;2024-01-06T12:25:28;4.53;;;3.93;;
9974;SDS011;5028;50.974;4.968;2024-01-06T12:28:05;4.57;;;4.17;;
9974;SDS011;5028;50.974;4.968;2024-01-06T12:30:34;4.77;;;4.00;;
9974;SDS011;5028;50.974;4.968;2024-01-06T12:33:03;7.40;;;4.33;;
9974;SDS011;5028;50.974;4.968;2024-01-06T12:35:34;4.80;;;4.40;;
9974;SDS011;5028;50.974;4.968;2024-01-06T12:38:02;4.33;;;3.93;;
9974;SDS011;5028;50.974;4.968;2024-01-06T12:40:36;4.87;;;4.23;;
9974;SDS011;5028;50.974;4.968;2024-01-06T12:43:05;4.43;;;2.97;;
9974;SDS011;5028;50.974;4.968;2024-01-06T12:45:34;5.10;;;4.57;;
9974;SDS011;5028;50.974;4.968;2024-01-06T12:48:02;5.33;;;4.73;;
9974;SDS011;5028;50.974;4.968;2024-01-06T12:50:31;3.77;;;3.47;;
9974;SDS011;5028;50.974;4.968;2024-01-06T12:53:00;3.87;;;3.47;;
9974;SDS011;5028;50.974;4.968;2024-01-06T12:55:30;3.90;;;3.53;;
9974;SDS011;5028;50.974;4.968;2024-01-06T12:58:00;3.93;;;3.63;;
9974;SDS011;5028;50.974;4.968;2024-01-06T13:00:30;3.57;;;3.27;;
9974;SDS011;5028;50.974;4.968;2024-01-06T13:03:02;3.43;;;3.13;;
9974;SDS011;5028;50.974;4.968;2024-01-06T13:05:31;3.30;;;3.00;;
9974;SDS011;5028;50.974;4.968;2024-01-06T13:08:00;3.43;;;3.13;;
9974;SDS011;5028;50.974;4.968;2024-01-06T13:10:29;4.07;;;3.67;;
9974;SDS011;5028;50.974;4.968;2024-01-06T13:12:57;3.20;;;2.90;;
9974;SDS011;5028;50.974;4.968;2024-01-06T13:15:27;3.67;;;3.37;;
9974;SDS011;5028;50.974;4.968;2024-01-06T13:17:56;4.60;;;3.90;;
9974;SDS011;5028;50.974;4.968;2024-01-06T13:20:24;3.77;;;3.43;;
9974;SDS011;5028;50.974;4.968;2024-01-06T13:22:53;3.00;;;2.70;;
9974;SDS011;5028;50.974;4.968;2024-01-06T13:25:22;3.97;;;3.67;;
9974;SDS011;5028;50.974;4.968;2024-01-06T13:27:50;4.50;;;4.10;;
9974;SDS011;5028;50.974;4.968;2024-01-06T13:30:19;4.03;;;3.60;;
9974;SDS011;5028;50.974;4.968;2024-01-06T13:32:49;3.60;;;3.30;;
9974;SDS011;5028;50.974;4.968;2024-01-06T13:35:18;4.03;;;2.90;;
9974;SDS011;5028;50.974;4.968;2024-01-06T13:37:47;3.70;;;3.40;;
9974;SDS011;5028;50.974;4.968;2024-01-06T13:40:17;3.30;;;3.00;;
9974;SDS011;5028;50.974;4.968;2024-01-06T13:42:46;5.10;;;4.60;;
9974;SDS011;5028;50.974;4.968;2024-01-06T13:45:15;4.60;;;4.17;;
9974;SDS011;5028;50.974;4.968;2024-01-06T13:47:44;5.27;;;4.77;;
9974;SDS011;5028;50.974;4.968;2024-01-06T13:50:15;4.83;;;4.40;;
9974;SDS011;5028;50.974;4.968;2024-01-06T13:52:44;4.67;;;4.27;;
9974;SDS011;5028;50.974;4.968;2024-01-06T13:55:13;7.10;;;4.70;;
9974;SDS011;5028;50.974;4.968;2024-01-06T13:57:41;5.70;;;5.13;;
9974;SDS011;5028;50.974;4.968;2024-01-06T14:00:11;5.33;;;4.70;;
9974;SDS011;5028;50.974;4.968;2024-01-06T14:02:46;4.57;;;4.00;;
9974;SDS011;5028;50.974;4.968;2024-01-06T14:05:16;5.50;;;4.77;;
9974;SDS011;5028;50.974;4.968;2024-01-06T14:07:46;6.07;;;5.47;;
9974;SDS011;5028;50.974;4.968;2024-01-06T14:10:17;5.57;;;4.90;;
9974;SDS011;5028;50.974;4.968;2024-01-06T14:12:46;5.00;;;4.43;;
9974;SDS011;5028;50.974;4.968;2024-01-06T14:15:15;4.33;;;3.93;;
9974;SDS011;5028;50.974;4.968;2024-01-06T14:17:44;4.27;;;3.17;;
9974;SDS011;5028;50.974;4.968;2024-01-06T14:20:18;6.07;;;4.30;;
9974;SDS011;5028;50.974;4.968;2024-01-06T14:22:47;5.67;;;4.63;;
9974;SDS011;5028;50.974;4.968;2024-01-06T14:25:16;4.83;;;4.40;;
9974;SDS011;5028;50.974;4.968;2024-01-06T14:27:46;4.90;;;4.37;;
9974;SDS011;5028;50.974;4.968;2024-01-06T14:30:15;5.70;;;4.60;;
9974;SDS011;5028;50.974;4.968;2024-01-06T14:32:43;6.47;;;5.03;;
9974;SDS011;5028;50.974;4.968;2024-01-06T14:35:12;5.70;;;4.20;;
9974;SDS011;5028;50.974;4.968;2024-01-06T14:37:44;4.70;;;4.03;;
9974;SDS011;5028;50.974;4.968;2024-01-06T14:40:13;4.87;;;4.37;;
9974;SDS011;5028;50.974;4.968;2024-01-06T14:42:41;10.87;;;8.67;;
9974;SDS011;5028;50.974;4.968;2024-01-06T14:45:11;7.33;;;5.97;;
9974;SDS011;5028;50.974;4.968;2024-01-06T14:47:40;9.43;;;8.37;;
9974;SDS011;5028;50.974;4.968;2024-01-06T14:50:09;5.60;;;5.10;;
9974;SDS011;5028;50.974;4.968;2024-01-06T14:52:37;5.63;;;4.80;;
9974;SDS011;5028;50.974;4.968;2024-01-06T14:55:08;6.20;;;4.87;;
9974;SDS011;5028;50.974;4.968;2024-01-06T14:57:38;5.07;;;4.67;;
9974;SDS011;5028;50.974;4.968;2024-01-06T15:00:07;5.40;;;4.87;;
9974;SDS011;5028;50.974;4.968;2024-01-06T15:02:37;4.47;;;3.90;;
9974;SDS011;5028;50.974;4.968;2024-01-06T15:05:06;7.90;;;5.23;;
9974;SDS011;5028;50.974;4.968;2024-01-06T15:07:36;5.87;;;5.33;;
9974;SDS011;5028;50.974;4.968;2024-01-06T15:10:05;5.60;;;5.10;;
9974;SDS011;5028;50.974;4.968;2024-01-06T15:12:37;4.83;;;4.33;;
9974;SDS011;5028;50.974;4.968;2024-01-06T15:15:06;5.53;;;5.03;;
9974;SDS011;5028;50.974;4.968;2024-01-06T15:17:35;5.73;;;4.83;;
9974;SDS011;5028;50.974;4.968;2024-01-06T15:20:04;5.23;;;4.77;;
9974;SDS011;5028;50.974;4.968;2024-01-06T15:22:36;4.93;;;4.43;;
9974;SDS011;5028;50.974;4.968;2024-01-06T15:25:07;5.87;;;5.23;;
9974;SDS011;5028;50.974;4.968;2024-01-06T15:27:38;7.07;;;6.30;;
9974;SDS011;5028;50.974;4.968;2024-01-06T15:30:07;5.93;;;5.37;;
9974;SDS011;5028;50.974;4.968;2024-01-06T15:32:36;6.10;;;5.50;;